Aeroporto :
LOGIN :

Iscrizione | Disclaimer

   EN    FR    IT 

 










Sommario :    VFR   VFR Marginale   IFR   IFR Intensivo   IFR Molto Intensivo
Visibilità : 
Base nubi : 
>= 8 km
>= 3000ft
5 / 8 km
1000 / 3000 ft
1500m / 5 km
500 / 1000 ft
800 / 1500m
200 / 500 ft
< 800m
< 200 ft
Simboli :   Temporali  Nebbia  Neve Forte  Precipitazioni Forti  Vento > 20 kt
SIGMETs :   Varie  Temporali  Ghiacco  Turbolenza  Onda orograficha  Ceneri Vulcaniche







- Altitudine del aeroporto : 56 ft
- Codice IATA : BZR
- Carte del aeroporto


LFMU - Beziers / Vias

ULTIMO METAR :
  • 250700Z AUTO 07010KT CAVOK 25/18 Q1019 BECMG 13010KT

METARs OBSOLETI :
  • 250630Z AUTO 06007KT CAVOK 24/18 Q1018 BECMG 13010KT
  • 250600Z AUTO 05008KT CAVOK 22/17 Q1018 NOSIG
  • 250530Z AUTO 05007KT CAVOK 21/16 Q1018 NOSIG
  • 250500Z AUTO 03008KT CAVOK 19/15 Q1018 NOSIG
  • 250430Z AUTO 03007KT CAVOK 18/15 Q1018 NOSIG

TAF TAF LFMU
Valido dal 25 a 03 ore il 26 a 03 ore UTC


250200Z 2503/2603 04005KT CAVOK
BECMG 2508/2510 13010KT
TEMPO 2511/2516 12012G22KT
ATIS : +33 4 67 90 88 88
Nessun NOTAM noto per questo aeroporto.



MetMap, La meteo Aeronautica in un colpo d'occhio ! - Copyright ORBIFLY Dicembre 2007 - Disclaimer

ORBIFLY MET'MAP TEAM :

Programmazione e sviluppo : Alexandra Zaïnal
Concezione e sviluppo : Baudouin d'Aumeries
Co-Programmazione e sviluppo : Marc-Olivier Méhu
Supporto tecnico e logistico : Manuel Goepfert
Aiuto per la traduzione : Arnaldo La Scala

Contatto : metmap@orbifly.com




FONTI E CREDITI :

   NOAA